Time;durP1;ratioP1;P1;durP2;ratioP2;P2;SDS_P1;SDS_P2;PMS_P1;PMS_P2;Temp;Humidity;BMP_temperature;BMP_pressure;BME280_temperature;BME280_humidity;BME280_pressure;Samples;Min_cycle;Max_cycle;Signal;HPM_P1;HPM_P2
2021/03/13 00:00:56;;;;;;;45.10;33.30;;;;;;;11.45;64.33;100143.09;5039843;28;20041;-67
2021/03/13 00:03:23;;;;;;;47.10;31.88;;;;;;;11.39;64.38;100143.44;5044731;28;20487;-66
2021/03/13 00:05:49;;;;;;;46.53;32.78;;;;;;;11.20;64.38;100152.28;5040039;28;20044;-67
2021/03/13 00:08:16;;;;;;;47.15;31.92;;;;;;;11.26;63.27;100156.34;5046327;28;20064;-67
2021/03/13 00:10:44;;;;;;;54.15;36.08;;;;;;;11.09;63.76;100157.25;5035526;28;20038;-66
2021/03/13 00:13:11;;;;;;;45.88;31.20;;;;;;;11.09;64.15;100151.19;5040868;28;20030;-64
2021/03/13 00:15:40;;;;;;;40.35;26.42;;;;;;;11.01;63.69;100152.41;5039961;28;20112;-65
2021/03/13 00:18:07;;;;;;;49.17;26.15;;;;;;;11.16;63.17;100150.75;5044830;28;20045;-67
2021/03/13 00:20:36;;;;;;;43.47;29.25;;;;;;;11.17;63.23;100143.78;5041912;28;20052;-66
2021/03/13 00:23:04;;;;;;;46.42;28.75;;;;;;;11.20;63.00;100138.41;5040812;28;20083;-66
2021/03/13 00:25:32;;;;;;;43.40;29.00;;;;;;;11.19;62.96;100136.72;5042140;28;20136;-64
2021/03/13 00:27:59;;;;;;;42.22;29.25;;;;;;;10.93;63.59;100135.50;5038758;28;20176;-65
2021/03/13 00:30:28;;;;;;;44.42;29.30;;;;;;;11.02;63.22;100133.25;5039848;28;20052;-64
2021/03/13 00:32:58;;;;;;;41.15;28.83;;;;;;;11.02;62.80;100135.88;5041716;28;20037;-65
2021/03/13 00:35:27;;;;;;;46.30;28.83;;;;;;;10.98;62.75;100129.13;5042362;28;20037;-66
2021/03/13 00:37:54;;;;;;;46.80;28.60;;;;;;;10.95;63.12;100131.03;5044830;28;20115;-65
2021/03/13 00:40:23;;;;;;;54.17;32.65;;;;;;;10.82;63.62;100133.47;5042556;28;20492;-66
2021/03/13 00:42:50;;;;;;;34.10;26.73;;;;;;;10.82;63.58;100133.47;5045316;28;20415;-65
2021/03/13 00:45:19;;;;;;;36.97;24.15;;;;;;;10.90;62.08;100127.84;5045904;28;20079;-64
2021/03/13 00:47:46;;;;;;;34.15;19.73;;;;;;;10.90;60.80;100133.88;5039476;28;20040;-66
2021/03/13 00:50:15;;;;;;;28.05;19.33;;;;;;;10.81;62.09;100130.91;5044381;28;20041;-66
2021/03/13 00:52:42;;;;;;;34.63;20.98;;;;;;;10.80;61.80;100129.25;5040777;28;21091;-67
2021/03/13 00:55:10;;;;;;;26.77;19.13;;;;;;;10.84;61.14;100139.44;5041293;28;20517;-67
2021/03/13 00:57:38;;;;;;;28.05;21.25;;;;;;;10.77;62.47;100140.69;5045717;28;20454;-66
2021/03/13 01:00:15;;;;;;;30.13;19.58;;;;;;;11.01;61.19;100155.03;5060589;28;20073;-67
2021/03/13 01:02:42;;;;;;;37.85;24.52;;;;;;;10.82;61.87;100159.53;5045720;28;20040;-67
2021/03/13 01:05:10;;;;;;;38.70;26.73;;;;;;;10.48;63.21;100161.25;5041503;28;20029;-67
2021/03/13 01:07:39;;;;;;;40.17;27.05;;;;;;;10.46;63.34;100163.13;5047414;28;20407;-67
2021/03/13 01:10:13;;;;;;;40.75;28.17;;;;;;;10.40;63.79;100163.44;5046034;28;20068;-68
2021/03/13 01:12:41;;;;;;;40.13;28.42;;;;;;;10.37;63.99;100171.41;5052011;28;20120;-67
2021/03/13 01:15:11;;;;;;;42.38;27.08;;;;;;;10.37;63.83;100166.19;5052939;28;20052;-67
2021/03/13 01:17:39;;;;;;;41.05;27.30;;;;;;;10.26;64.10;100163.28;5054164;28;20049;-67
2021/03/13 01:20:09;;;;;;;39.80;26.35;;;;;;;10.35;63.67;100170.63;5050024;28;20453;-68
2021/03/13 01:22:36;;;;;;;39.75;26.35;;;;;;;10.26;63.44;100160.66;5047332;28;20041;-67
2021/03/13 01:25:04;;;;;;;43.65;25.02;;;;;;;10.38;63.40;100165.25;5054994;28;20076;-64
2021/03/13 01:27:31;;;;;;;37.40;25.63;;;;;;;10.37;62.98;100158.38;5047100;28;20069;-65
2021/03/13 01:29:57;;;;;;;40.00;23.85;;;;;;;10.31;63.16;100157.84;5052005;28;20037;-65
2021/03/13 01:32:24;;;;;;;34.88;24.27;;;;;;;10.30;63.27;100156.16;5052606;28;20098;-65
2021/03/13 01:34:51;;;;;;;31.35;20.83;;;;;;;10.26;63.32;100154.63;5052236;28;20047;-65
2021/03/13 01:37:20;;;;;;;37.00;22.38;;;;;;;10.44;62.24;100153.72;5052320;28;20071;-64
2021/03/13 01:39:49;;;;;;;27.95;20.55;;;;;;;10.09;62.82;100148.44;5052518;28;20041;-65
2021/03/13 01:42:21;;;;;;;25.88;18.83;;;;;;;10.21;62.27;100158.25;5052123;28;20071;-65
2021/03/13 01:44:51;;;;;;;29.55;19.20;;;;;;;10.19;62.50;100157.50;5052766;28;20041;-65
2021/03/13 01:47:27;;;;;;;25.00;18.42;;;;;;;10.26;61.79;100163.28;5053708;28;20120;-65
2021/03/13 01:49:57;;;;;;;27.30;16.23;;;;;;;10.22;62.09;100165.16;5053524;28;20094;-64
2021/03/13 01:52:31;;;;;;;20.00;13.40;;;;;;;10.36;60.59;100164.50;5052293;28;20128;-66
2021/03/13 01:55:19;;;;;;;17.48;11.07;;;;;;;10.51;60.05;100172.47;5052401;28;20037;-65
2021/03/13 01:57:50;;;;;;;22.55;15.68;;;;;;;10.44;60.03;100169.34;5045222;28;20041;-65
2021/03/13 02:00:23;;;;;;;19.35;13.27;;;;;;;10.36;60.88;100166.25;5049510;28;20045;-62
2021/03/13 02:02:54;;;;;;;20.27;12.32;;;;;;;10.39;60.22;100161.75;5050340;28;20045;-65
2021/03/13 02:05:27;;;;;;;16.08;11.50;;;;;;;10.31;60.68;100163.03;5052868;28;20039;-64
2021/03/13 02:08:17;;;;;;;19.75;12.00;;;;;;;10.31;60.44;100161.28;5050069;28;20049;-63
2021/03/13 02:11:02;;;;;;;19.23;11.52;;;;;;;10.18;60.89;100162.78;5032319;28;20106;-65
2021/03/13 02:13:38;;;;;;;17.95;12.07;;;;;;;10.13;61.05;100165.63;5040505;28;20136;-64
2021/03/13 02:16:27;;;;;;;18.85;11.43;;;;;;;10.16;60.87;100164.63;5035622;28;20070;-65
2021/03/13 02:19:19;;;;;;;22.90;13.65;;;;;;;10.11;61.06;100169.22;5056456;28;20124;-65
2021/03/13 02:21:54;;;;;;;19.27;12.70;;;;;;;10.27;60.60;100170.16;5046529;28;20124;-64
2021/03/13 02:24:27;;;;;;;22.83;13.57;;;;;;;9.98;61.08;100167.22;5049481;28;20040;-65
2021/03/13 02:27:13;;;;;;;20.45;13.80;;;;;;;10.03;61.24;100174.81;5051827;28;20488;-66
2021/03/13 02:29:59;;;;;;;19.40;12.70;;;;;;;10.12;61.05;100170.88;5046087;28;20067;-65
2021/03/13 02:33:19;;;;;;;21.92;13.60;;;;;;;10.25;60.41;100174.63;5050841;28;20037;-66
2021/03/13 02:36:20;;;;;;;24.00;15.07;;;;;;;10.29;60.99;100173.56;5044421;28;20048;-66
2021/03/13 02:38:58;;;;;;;25.10;17.23;;;;;;;10.26;61.24;100172.84;5047799;28;20048;-68
2021/03/13 02:41:34;;;;;;;25.92;15.02;;;;;;;10.33;60.99;100163.81;5054164;28;20064;-67
2021/03/13 02:44:05;;;;;;;20.95;14.20;;;;;;;10.16;61.39;100164.63;5052110;28;20576;-67
2021/03/13 02:46:45;;;;;;;18.73;12.25;;;;;;;10.16;60.87;100159.41;5050333;28;20040;-67
2021/03/13 02:49:14;;;;;;;20.67;13.25;;;;;;;10.14;61.11;100163.84;5050866;28;20053;-67
2021/03/13 02:51:45;;;;;;;19.83;12.15;;;;;;;10.16;60.35;100165.44;5041624;28;20047;-67
2021/03/13 02:54:13;;;;;;;19.60;11.77;;;;;;;10.08;60.50;100172.81;5049224;28;20041;-67
2021/03/13 02:56:43;;;;;;;19.77;13.80;;;;;;;10.13;60.63;100175.19;5051031;28;20127;-66
2021/03/13 02:59:18;;;;;;;25.25;14.18;;;;;;;9.94;61.51;100170.03;5051470;28;20414;-66
2021/03/13 03:02:05;;;;;;;23.45;14.82;;;;;;;10.04;61.55;100175.66;5051086;28;20052;-67
2021/03/13 03:04:35;;;;;;;22.75;15.25;;;;;;;10.02;61.11;100173.13;5052058;28;20041;-66
2021/03/13 03:07:03;;;;;;;24.42;15.48;;;;;;;9.90;61.81;100164.13;5051248;28;20103;-66
2021/03/13 03:09:30;;;;;;;27.13;18.20;;;;;;;9.82;62.18;100171.47;5052068;28;20064;-66
2021/03/13 03:11:58;;;;;;;25.20;15.50;;;;;;;9.87;62.17;100173.88;5051209;28;20124;-66
2021/03/13 03:14:26;;;;;;;25.60;16.13;;;;;;;9.78;62.04;100169.94;5052578;28;20076;-65
2021/03/13 03:16:57;;;;;;;29.90;16.70;;;;;;;9.73;62.15;100176.28;5050914;28;20083;-66
2021/03/13 03:19:33;;;;;;;26.17;15.93;;;;;;;9.69;62.86;100175.56;5036104;28;20170;-66
2021/03/13 03:22:07;;;;;;;25.55;16.95;;;;;;;9.78;62.52;100185.53;5050795;28;20056;-68
2021/03/13 03:24:34;;;;;;;25.50;16.67;;;;;;;9.70;62.77;100183.31;5050387;28;20411;-67
2021/03/13 03:27:05;;;;;;;21.70;16.15;;;;;;;9.74;62.13;100184.00;5050672;28;20063;-67
2021/03/13 03:29:35;;;;;;;33.25;16.20;;;;;;;9.78;61.71;100185.53;5051360;28;20049;-67
2021/03/13 03:32:05;;;;;;;22.05;14.43;;;;;;;9.73;62.57;100187.53;5050137;28;20053;-68
2021/03/13 03:34:32;;;;;;;32.72;19.75;;;;;;;9.67;62.45;100188.66;5050619;28;20065;-67
2021/03/13 03:37:00;;;;;;;25.17;17.67;;;;;;;9.86;61.77;100188.66;5051925;28;20534;-67
2021/03/13 03:39:28;;;;;;;27.55;17.17;;;;;;;9.76;62.13;100190.00;5050378;28;20487;-67
2021/03/13 03:42:01;;;;;;;30.00;16.23;;;;;;;9.77;61.89;100189.06;5061070;28;20136;-67
2021/03/13 03:44:38;;;;;;;25.73;16.45;;;;;;;9.61;62.51;100182.91;5048158;28;20136;-67
2021/03/13 03:47:10;;;;;;;21.65;14.90;;;;;;;9.56;62.64;100185.72;5052450;28;20044;-67
2021/03/13 03:49:40;;;;;;;25.85;16.05;;;;;;;9.50;62.84;100179.97;5050680;28;20535;-65
2021/03/13 03:52:30;;;;;;;29.40;15.68;;;;;;;9.52;62.89;100183.31;5041697;28;20053;-65
2021/03/13 03:54:58;;;;;;;30.15;17.55;;;;;;;9.57;63.00;100194.38;5049950;28;20041;-65
2021/03/13 03:57:28;;;;;;;30.92;18.60;;;;;;;9.53;62.72;100188.44;5051574;28;20083;-65
2021/03/13 03:59:56;;;;;;;25.98;16.65;;;;;;;9.62;62.83;100192.41;5051397;28;20511;-66
2021/03/13 04:02:25;;;;;;;30.92;17.23;;;;;;;9.65;62.42;100197.47;5052119;28;20124;-67
2021/03/13 04:04:53;;;;;;;24.98;16.52;;;;;;;9.74;61.98;100196.19;5046504;28;20044;-68
2021/03/13 04:07:20;;;;;;;27.73;16.80;;;;;;;9.81;61.85;100195.00;5049720;28;20033;-68
2021/03/13 04:09:48;;;;;;;27.42;17.00;;;;;;;9.40;63.53;100196.00;5049196;28;20476;-68
2021/03/13 04:12:19;;;;;;;28.42;18.38;;;;;;;9.34;63.62;100206.69;5056176;28;20116;-67
2021/03/13 04:14:47;;;;;;;28.50;16.27;;;;;;;9.22;63.46;100202.03;5055667;28;20052;-67
2021/03/13 04:17:14;;;;;;;23.63;14.45;;;;;;;9.21;63.46;100200.34;5055311;28;20123;-67
2021/03/13 04:19:42;;;;;;;27.20;13.95;;;;;;;9.18;63.04;100203.94;5055801;28;20443;-67
2021/03/13 04:22:09;;;;;;;23.85;16.05;;;;;;;9.07;62.69;100205.31;5054886;28;20045;-67
2021/03/13 04:24:38;;;;;;;27.27;18.25;;;;;;;9.01;63.69;100213.41;5055188;28;20041;-67
2021/03/13 04:27:05;;;;;;;22.33;15.02;;;;;;;8.93;63.60;100211.97;5054877;28;20131;-67
2021/03/13 04:29:31;;;;;;;30.00;16.83;;;;;;;9.02;63.70;100215.94;5054918;28;20041;-67
2021/03/13 04:32:00;;;;;;;26.80;15.40;;;;;;;9.00;63.46;100212.56;5054984;28;20129;-67
2021/03/13 04:34:30;;;;;;;28.42;16.60;;;;;;;8.93;63.93;100211.97;5054991;28;20045;-67
2021/03/13 04:36:57;;;;;;;32.28;16.40;;;;;;;8.90;64.17;100212.13;5054496;28;20099;-67
2021/03/13 04:39:24;;;;;;;24.00;15.60;;;;;;;9.34;62.51;100209.28;5055377;28;20430;-68
2021/03/13 04:41:52;;;;;;;19.98;14.45;;;;;;;9.16;62.42;100204.91;5055543;28;20128;-67
2021/03/13 04:44:19;;;;;;;28.25;15.95;;;;;;;9.00;63.54;100204.75;5054825;28;20045;-67
2021/03/13 04:46:46;;;;;;;24.50;14.93;;;;;;;8.93;64.04;100205.91;5055481;28;20049;-67
2021/03/13 04:49:13;;;;;;;23.15;15.48;;;;;;;8.90;63.99;100206.91;5054397;28;20059;-67
2021/03/13 04:51:40;;;;;;;26.75;14.95;;;;;;;9.01;63.88;100213.41;5055549;28;20433;-68
2021/03/13 04:54:07;;;;;;;24.27;15.60;;;;;;;8.87;64.07;100212.25;5054822;28;20069;-68
2021/03/13 04:56:34;;;;;;;27.20;16.25;;;;;;;8.95;63.89;100213.66;5054546;28;20037;-68
2021/03/13 04:59:00;;;;;;;26.77;16.95;;;;;;;9.08;63.85;100212.22;5054735;28;20068;-67
2021/03/13 05:01:26;;;;;;;26.10;16.38;;;;;;;8.89;64.28;100220.84;5055067;28;20120;-68
2021/03/13 05:03:53;;;;;;;27.30;14.80;;;;;;;8.76;64.77;100224.00;5054524;28;20069;-68
2021/03/13 05:06:19;;;;;;;32.42;16.65;;;;;;;9.00;63.53;100222.09;5053661;28;20127;-68
2021/03/13 05:08:45;;;;;;;29.10;16.40;;;;;;;9.07;63.48;100218.31;5055141;28;20052;-68
2021/03/13 05:11:12;;;;;;;28.10;16.23;;;;;;;9.00;63.60;100220.38;5054630;28;20037;-68
2021/03/13 05:13:38;;;;;;;31.17;19.08;;;;;;;8.86;63.72;100218.34;5054999;28;20052;-68
2021/03/13 05:16:06;;;;;;;24.90;15.75;;;;;;;8.85;63.86;100224.47;5047435;28;20045;-67
2021/03/13 05:18:32;;;;;;;23.15;15.20;;;;;;;8.60;63.93;100222.06;5054595;28;20468;-68
2021/03/13 05:20:58;;;;;;;25.92;15.82;;;;;;;8.71;64.03;100220.75;5048012;28;20048;-68
2021/03/13 05:23:25;;;;;;;23.05;15.68;;;;;;;8.76;63.61;100222.25;5047454;28;20049;-66
2021/03/13 05:25:51;;;;;;;27.38;17.02;;;;;;;8.73;63.81;100235.38;5053918;28;20065;-66
2021/03/13 05:28:18;;;;;;;32.53;17.40;;;;;;;8.61;64.00;100228.09;5054686;28;20052;-66
2021/03/13 05:30:44;;;;;;;29.13;17.27;;;;;;;8.67;63.88;100225.22;5054366;28;20397;-66
2021/03/13 05:33:11;;;;;;;25.80;15.75;;;;;;;8.65;63.92;100229.66;5053221;28;20044;-66
2021/03/13 05:35:39;;;;;;;25.52;16.67;;;;;;;9.03;62.81;100234.97;5054388;28;20396;-67
2021/03/13 05:38:07;;;;;;;28.15;16.55;;;;;;;8.83;63.22;100231.47;5053029;28;20072;-63
2021/03/13 05:40:33;;;;;;;30.60;17.05;;;;;;;8.73;62.98;100232.75;5053657;28;20568;-66
2021/03/13 05:42:59;;;;;;;22.20;15.82;;;;;;;8.71;63.29;100237.19;5053046;28;20048;-65
2021/03/13 05:45:26;;;;;;;28.83;18.85;;;;;;;8.79;63.09;100229.06;5052929;28;20487;-66
2021/03/13 05:47:54;;;;;;;23.90;15.77;;;;;;;8.80;63.72;100235.97;5048828;28;20079;-65
2021/03/13 05:50:22;;;;;;;26.92;14.90;;;;;;;8.79;62.94;100227.34;5053897;28;20124;-66
2021/03/13 05:52:56;;;;;;;20.23;15.85;;;;;;;8.69;63.15;100239.03;5053252;28;20064;-65
2021/03/13 05:55:23;;;;;;;20.55;12.95;;;;;;;8.82;63.11;100237.59;5048795;28;20056;-66
2021/03/13 05:57:52;;;;;;;26.77;15.90;;;;;;;8.81;63.33;100237.66;5053577;28;20124;-67
2021/03/13 06:00:20;;;;;;;23.92;14.00;;;;;;;9.08;62.54;100235.63;5053369;28;20037;-66
2021/03/13 06:02:46;;;;;;;21.05;14.68;;;;;;;9.17;62.52;100240.41;5051944;28;20052;-65
2021/03/13 06:05:14;;;;;;;20.75;13.52;;;;;;;9.38;61.67;100249.03;5050251;28;20052;-67
2021/03/13 06:07:44;;;;;;;19.63;13.23;;;;;;;9.63;61.50;100240.94;5052410;28;20120;-66
2021/03/13 06:10:14;;;;;;;19.95;12.57;;;;;;;9.76;60.73;100243.81;5048518;28;20052;-66
2021/03/13 06:12:41;;;;;;;21.13;13.35;;;;;;;9.86;61.21;100250.28;5053552;28;20515;-66
2021/03/13 06:15:08;;;;;;;17.67;12.18;;;;;;;9.89;60.77;100244.91;5052636;28;20495;-66
2021/03/13 06:18:00;;;;;;;19.23;12.98;;;;;;;10.23;60.43;100258.06;5052800;28;20107;-67
2021/03/13 06:20:38;;;;;;;33.95;13.80;;;;;;;10.18;60.14;100254.81;5053132;28;20106;-68
2021/03/13 06:23:07;;;;;;;24.77;13.63;;;;;;;10.42;59.87;100258.00;5052841;28;20076;-68
2021/03/13 06:25:39;;;;;;;26.08;12.95;;;;;;;10.75;60.04;100265.91;5061163;28;20475;-67
2021/03/13 06:28:15;;;;;;;27.90;14.35;;;;;;;11.15;57.35;100270.88;5056328;28;20079;-66
2021/03/13 06:30:50;;;;;;;19.95;13.90;;;;;;;11.11;55.84;100275.38;5049743;28;20394;-66
2021/03/13 06:33:23;;;;;;;22.35;13.35;;;;;;;11.58;55.34;100279.03;5052611;28;20041;-67
2021/03/13 06:35:51;;;;;;;27.75;17.05;;;;;;;11.80;53.73;100274.34;5053062;28;20048;-69
2021/03/13 06:38:21;;;;;;;24.65;16.48;;;;;;;11.42;54.98;100282.47;5051787;28;20505;-66
2021/03/13 06:40:50;;;;;;;30.58;18.08;;;;;;;11.70;55.48;100278.38;5051680;28;20469;-66
2021/03/13 06:43:26;;;;;;;25.75;15.02;;;;;;;12.16;54.45;100286.34;5049160;28;20442;-66
2021/03/13 06:46:12;;;;;;;17.98;12.75;;;;;;;12.58;52.69;100289.13;5050029;28;20483;-66
2021/03/13 06:48:50;;;;;;;26.60;15.40;;;;;;;12.98;51.97;100280.72;5050949;28;20352;-68
2021/03/13 06:51:23;;;;;;;20.73;14.27;;;;;;;13.47;50.94;100278.63;5052720;28;20116;-69
2021/03/13 06:54:09;;;;;;;23.77;14.18;;;;;;;14.01;49.54;100272.66;5050256;28;20498;-67
2021/03/13 06:56:55;;;;;;;23.83;12.73;;;;;;;14.35;47.88;100279.19;5052403;28;20384;-67
2021/03/13 06:59:25;;;;;;;17.17;14.05;;;;;;;14.80;47.85;100287.63;5051739;28;20036;-66
2021/03/13 07:02:05;;;;;;;21.15;12.07;;;;;;;15.26;46.93;100284.50;5052050;28;20040;-67
2021/03/13 07:04:43;;;;;;;27.65;13.38;;;;;;;15.45;45.91;100288.41;5050633;28;20102;-68
2021/03/13 07:07:29;;;;;;;16.70;11.35;;;;;;;15.82;44.58;100308.63;5051803;28;20048;-67
2021/03/13 07:09:57;;;;;;;19.25;12.55;;;;;;;16.19;44.21;100302.44;5051923;28;20037;-68
2021/03/13 07:12:35;;;;;;;20.23;12.45;;;;;;;16.26;43.32;100307.25;5049240;28;20120;-66
2021/03/13 07:15:22;;;;;;;19.77;12.98;;;;;;;16.39;44.88;100314.13;5051927;28;20124;-67
2021/03/13 07:17:54;;;;;;;17.92;12.93;;;;;;;16.65;45.88;100314.00;5049862;28;20513;-68
2021/03/13 07:20:23;;;;;;;19.00;11.85;;;;;;;16.38;45.70;100319.50;5052198;28;20037;-68
2021/03/13 07:22:58;;;;;;;19.77;11.95;;;;;;;16.91;45.35;100318.19;5051606;28;20128;-68
2021/03/13 07:25:26;;;;;;;15.63;10.25;;;;;;;17.63;43.91;100328.50;5049190;28;20065;-68
2021/03/13 07:27:57;;;;;;;20.23;11.57;;;;;;;17.75;43.04;100327.56;5050966;28;20036;-67
2021/03/13 07:30:26;;;;;;;17.27;10.32;;;;;;;18.04;42.11;100337.59;5048940;28;20033;-68
2021/03/13 07:32:58;;;;;;;20.08;8.30;;;;;;;18.11;41.84;100346.72;5037032;28;20041;-62
2021/03/13 07:35:38;;;;;;;14.65;9.55;;;;;;;18.51;41.17;100343.47;5040375;28;20052;-64
2021/03/13 07:38:09;;;;;;;23.52;10.32;;;;;;;18.39;40.81;100342.69;5047988;28;20083;-64
2021/03/13 07:40:42;;;;;;;15.07;9.38;;;;;;;18.64;41.73;100336.22;5054826;28;20487;-65
2021/03/13 07:43:11;;;;;;;22.90;9.63;;;;;;;17.78;43.41;100343.13;5053451;28;20140;-65
2021/03/13 07:45:39;;;;;;;14.65;9.65;;;;;;;16.98;44.81;100337.00;5052522;28;20107;-65
2021/03/13 07:48:10;;;;;;;23.98;11.25;;;;;;;17.42;43.79;100335.44;5051032;28;20081;-66
2021/03/13 07:50:39;;;;;;;27.98;13.15;;;;;;;16.76;44.72;100349.13;5053807;28;20049;-65
2021/03/13 07:53:09;;;;;;;23.00;12.73;;;;;;;17.60;43.15;100354.25;5053951;28;20069;-66
2021/03/13 07:55:36;;;;;;;22.52;13.00;;;;;;;17.58;42.70;100354.38;5054649;28;20095;-67
2021/03/13 07:58:03;;;;;;;19.85;13.63;;;;;;;16.86;44.50;100353.72;5053515;28;20041;-66
2021/03/13 08:00:44;;;;;;;17.52;11.77;;;;;;;16.89;43.15;100361.41;5052158;28;20136;-66
2021/03/13 08:03:32;;;;;;;21.47;11.53;;;;;;;17.00;44.50;100359.66;5051139;28;20071;-66
2021/03/13 08:06:10;;;;;;;15.27;11.27;;;;;;;17.40;42.90;100358.41;5052348;28;20570;-65
2021/03/13 08:08:43;;;;;;;18.52;11.48;;;;;;;16.81;41.98;100351.44;5052147;28;20570;-65
2021/03/13 08:11:17;;;;;;;20.53;11.80;;;;;;;17.15;42.06;100354.16;5053271;28;20517;-65
2021/03/13 08:13:46;;;;;;;18.30;10.90;;;;;;;17.52;41.27;100355.69;5052643;28;20167;-65
2021/03/13 08:16:13;;;;;;;16.80;11.80;;;;;;;17.59;41.20;100353.41;5052280;28;20530;-65
2021/03/13 08:18:42;;;;;;;13.70;11.30;;;;;;;17.31;40.87;100354.69;5049322;28;20045;-66
2021/03/13 08:21:18;;;;;;;20.35;10.60;;;;;;;17.89;39.91;100354.63;5052630;28;20041;-68
2021/03/13 08:23:48;;;;;;;20.55;10.85;;;;;;;17.68;39.67;100363.22;5051987;28;20448;-65
2021/03/13 08:26:16;;;;;;;16.30;9.88;;;;;;;18.02;39.83;100355.34;5052857;28;20120;-67
2021/03/13 08:28:49;;;;;;;15.85;10.13;;;;;;;17.95;38.88;100355.00;5048756;28;20045;-67
2021/03/13 08:31:21;;;;;;;17.88;9.82;;;;;;;17.91;38.11;100356.19;5052566;28;20037;-68
2021/03/13 08:33:56;;;;;;;18.35;10.23;;;;;;;17.93;37.77;100350.78;5052001;28;20041;-66
2021/03/13 08:36:28;;;;;;;18.00;10.82;;;;;;;18.13;38.17;100347.41;5049953;28;20033;-71
2021/03/13 08:39:04;;;;;;;19.77;11.65;;;;;;;18.38;38.13;100343.66;5051864;28;20040;-65
2021/03/13 08:41:43;;;;;;;16.73;10.50;;;;;;;18.26;38.27;100342.81;5051505;28;20155;-67
2021/03/13 08:44:19;;;;;;;19.77;11.88;;;;;;;19.08;37.36;100348.44;5051469;28;20037;-67
2021/03/13 08:46:54;;;;;;;24.58;13.38;;;;;;;18.65;36.85;100342.38;5049414;28;20123;-66
2021/03/13 08:49:28;;;;;;;21.85;12.68;;;;;;;18.45;37.78;100336.91;5049991;28;20052;-67
2021/03/13 08:52:07;;;;;;;22.98;12.63;;;;;;;18.99;36.10;100340.44;5052124;28;20049;-68
2021/03/13 08:54:41;;;;;;;29.67;14.25;;;;;;;18.75;37.17;100333.59;5053698;28;20095;-68
2021/03/13 08:57:09;;;;;;;21.23;13.50;;;;;;;19.25;36.66;100328.50;5052219;28;20136;-67
2021/03/13 08:59:37;;;;;;;35.63;14.45;;;;;;;18.65;38.46;100327.34;5053526;28;20045;-66
2021/03/13 09:02:06;;;;;;;29.90;13.05;;;;;;;19.10;37.81;100327.16;5050457;28;20132;-66
2021/03/13 09:04:35;;;;;;;18.98;12.95;;;;;;;19.54;36.94;100326.00;5047800;28;20388;-66
2021/03/13 09:07:03;;;;;;;22.83;12.63;;;;;;;19.84;36.95;100329.63;5045886;28;20095;-66
2021/03/13 09:09:32;;;;;;;28.45;15.02;;;;;;;19.65;36.37;100319.81;5040593;28;20491;-65
2021/03/13 09:12:08;;;;;;;24.27;15.10;;;;;;;19.30;37.26;100323.66;5047924;28;20041;-65
2021/03/13 09:14:40;;;;;;;16.40;14.00;;;;;;;18.87;38.27;100313.25;5050089;28;20387;-65
2021/03/13 09:17:14;;;;;;;18.10;13.23;;;;;;;19.10;37.99;100327.16;5051243;28;20075;-65
2021/03/13 09:19:43;;;;;;;19.95;13.60;;;;;;;18.70;38.21;100325.22;5052148;28;20067;-65
2021/03/13 09:22:15;;;;;;;22.27;13.63;;;;;;;18.68;38.46;100316.56;5050003;28;20059;-65
2021/03/13 09:24:43;;;;;;;19.50;14.32;;;;;;;18.44;39.09;100326.47;5051298;28;20056;-65
2021/03/13 09:27:10;;;;;;;19.70;12.80;;;;;;;18.55;38.33;100321.16;5051182;28;20094;-64
2021/03/13 09:29:37;;;;;;;19.98;12.70;;;;;;;18.22;38.80;100317.66;5051570;28;20051;-63
2021/03/13 09:32:07;;;;;;;22.45;13.23;;;;;;;17.98;39.63;100320.47;5053112;28;20057;-65
2021/03/13 09:34:38;;;;;;;30.88;16.67;;;;;;;17.41;41.26;100313.50;5055321;28;20575;-64
2021/03/13 09:37:29;;;;;;;21.05;14.98;;;;;;;17.45;41.49;100316.72;5052548;28;20060;-64
2021/03/13 09:40:05;;;;;;;30.65;18.48;;;;;;;17.41;41.79;100310.00;5045895;28;20148;-64
2021/03/13 09:42:32;;;;;;;26.90;18.02;;;;;;;17.15;43.43;100312.88;5051057;28;20132;-65
2021/03/13 09:45:04;;;;;;;33.50;19.30;;;;;;;17.11;43.28;100305.31;5052203;28;20451;-65
2021/03/13 09:47:43;;;;;;;32.15;22.23;;;;;;;16.74;44.65;100311.56;5052283;28;20044;-64
2021/03/13 09:50:25;;;;;;;26.52;20.48;;;;;;;16.90;44.14;100320.94;5049024;28;20090;-64
2021/03/13 09:52:52;;;;;;;33.33;23.77;;;;;;;16.86;45.01;100314.22;5051677;28;20106;-64
2021/03/13 09:55:26;;;;;;;30.45;23.48;;;;;;;16.59;45.27;100302.16;5052307;28;20132;-64
2021/03/13 09:58:00;;;;;;;35.00;24.02;;;;;;;16.72;45.14;100300.31;5052455;28;20044;-64
2021/03/13 10:00:31;;;;;;;44.75;27.38;;;;;;;16.64;45.93;100299.19;5053044;28;20075;-66
2021/03/13 10:02:59;;;;;;;34.25;27.45;;;;;;;16.56;45.83;100294.47;5052223;28;20049;-66
2021/03/13 10:05:28;;;;;;;43.45;28.05;;;;;;;16.48;45.75;100292.41;5053425;28;20055;-67
2021/03/13 10:07:55;;;;;;;44.17;29.75;;;;;;;16.47;46.21;100296.00;5045905;28;20037;-67
2021/03/13 10:10:26;;;;;;;42.28;26.55;;;;;;;16.03;47.48;100287.84;5052135;28;20120;-66
2021/03/13 10:12:54;;;;;;;38.85;29.13;;;;;;;16.09;47.91;100285.66;5052936;28;20124;-65
2021/03/13 10:15:32;;;;;;;34.35;27.00;;;;;;;16.35;47.34;100286.38;5051104;28;20445;-62
2021/03/13 10:18:05;;;;;;;41.88;29.08;;;;;;;16.19;47.74;100291.06;5042827;28;20045;-61
2021/03/13 10:20:49;;;;;;;34.97;27.15;;;;;;;16.49;46.97;100280.09;5038649;28;20045;-64
2021/03/13 10:23:16;;;;;;;36.72;28.33;;;;;;;16.39;46.54;100276.47;5035707;28;20045;-61
2021/03/13 10:26:03;;;;;;;36.13;26.48;;;;;;;16.34;46.58;100278.59;5037663;28;20048;-62
2021/03/13 10:28:37;;;;;;;38.33;24.67;;;;;;;16.14;46.94;100269.50;5032837;28;20128;-62
2021/03/13 10:31:19;;;;;;;42.40;23.15;;;;;;;16.52;46.27;100265.88;5039741;28;20131;-61
2021/03/13 10:33:47;;;;;;;33.15;25.88;;;;;;;16.67;46.02;100265.59;5035456;28;20408;-69
2021/03/13 10:36:17;;;;;;;45.58;30.67;;;;;;;16.53;46.64;100254.41;5043794;28;20491;-67
2021/03/13 10:38:49;;;;;;;41.30;27.92;;;;;;;16.58;47.75;100263.63;5048612;28;20048;-66
2021/03/13 10:41:20;;;;;;;39.53;27.50;;;;;;;16.44;47.76;100267.28;5046485;28;20045;-67
2021/03/13 10:43:47;;;;;;;43.25;30.60;;;;;;;16.58;47.38;100261.00;5037291;28;20587;-67
2021/03/13 10:46:18;;;;;;;36.78;29.77;;;;;;;16.22;48.73;100260.13;5035876;28;20036;-68
2021/03/13 10:48:51;;;;;;;42.60;29.33;;;;;;;16.27;48.27;100256.31;5036393;28;20121;-68
2021/03/13 10:51:21;;;;;;;41.05;30.77;;;;;;;16.48;47.94;100265.25;5038129;28;20567;-66
2021/03/13 10:53:48;;;;;;;38.33;30.38;;;;;;;16.33;48.13;100259.34;5038867;28;20049;-66
2021/03/13 10:56:15;;;;;;;40.17;27.27;;;;;;;16.58;47.46;100253.09;5040068;28;20185;-69
2021/03/13 10:59:00;;;;;;;40.90;28.83;;;;;;;16.30;47.91;100246.44;5043762;28;20136;-67
2021/03/13 11:01:26;;;;;;;;;;;;;;;16.31;47.31;100237.56;5039931;28;20044;-63
2021/03/13 11:03:54;;;;;;;34.58;26.13;;;;;;;16.48;47.29;100233.69;5036990;28;20011;-62
2021/03/13 11:06:34;;;;;;;40.17;28.73;;;;;;;16.49;48.74;100235.38;5040081;28;20084;-63
2021/03/13 11:09:04;;;;;;;41.65;26.30;;;;;;;16.24;48.09;100229.31;5039578;28;20065;-63
2021/03/13 11:11:31;;;;;;;40.22;28.00;;;;;;;16.28;48.61;100232.53;5040639;28;20164;-63
2021/03/13 11:13:58;;;;;;;36.40;26.42;;;;;;;16.28;47.44;100227.28;5037696;28;20440;-64
2021/03/13 11:16:24;;;;;;;34.10;26.02;;;;;;;16.34;48.40;100228.59;5035512;28;20073;-61
2021/03/13 11:18:55;;;;;;;37.42;24.17;;;;;;;16.59;47.67;100222.34;5038806;28;20128;-65
2021/03/13 11:21:23;;;;;;;34.72;26.27;;;;;;;16.27;47.99;100212.44;5038932;28;20087;-63
2021/03/13 11:23:51;;;;;;;34.10;25.55;;;;;;;16.35;48.20;100209.22;5034517;28;20092;-64
2021/03/13 11:26:19;;;;;;;29.15;21.45;;;;;;;16.48;47.20;100207.38;5037400;28;20137;-66
2021/03/13 11:28:46;;;;;;;32.50;21.63;;;;;;;16.50;46.69;100200.19;5036934;28;20068;-65
2021/03/13 11:31:13;;;;;;;28.40;21.40;;;;;;;16.44;45.85;100198.88;5035704;28;20128;-64